sensor_id;sensor_type;location;lat;lon;timestamp;P1;durP1;ratioP1;P2;durP2;ratioP2
3627;SDS011;1830;49.000;12.074;2022-12-18T00:02:09;133.20;;;45.33;;
3627;SDS011;1830;49.000;12.074;2022-12-18T00:04:36;126.63;;;45.07;;
3627;SDS011;1830;49.000;12.074;2022-12-18T00:07:04;140.70;;;48.03;;
3627;SDS011;1830;49.000;12.074;2022-12-18T00:09:31;137.37;;;48.43;;
3627;SDS011;1830;49.000;12.074;2022-12-18T00:11:57;130.70;;;44.17;;
3627;SDS011;1830;49.000;12.074;2022-12-18T00:14:24;130.80;;;47.80;;
3627;SDS011;1830;49.000;12.074;2022-12-18T00:16:51;132.00;;;46.90;;
3627;SDS011;1830;49.000;12.074;2022-12-18T00:19:18;119.00;;;41.97;;
3627;SDS011;1830;49.000;12.074;2022-12-18T00:21:45;122.03;;;45.90;;
3627;SDS011;1830;49.000;12.074;2022-12-18T00:24:13;98.30;;;40.57;;
3627;SDS011;1830;49.000;12.074;2022-12-18T00:26:40;123.67;;;43.77;;
3627;SDS011;1830;49.000;12.074;2022-12-18T00:29:08;114.57;;;45.10;;
3627;SDS011;1830;49.000;12.074;2022-12-18T00:31:38;115.97;;;43.10;;
3627;SDS011;1830;49.000;12.074;2022-12-18T00:34:06;114.07;;;43.73;;
3627;SDS011;1830;49.000;12.074;2022-12-18T00:36:35;120.47;;;42.63;;
3627;SDS011;1830;49.000;12.074;2022-12-18T00:39:03;118.90;;;44.03;;
3627;SDS011;1830;49.000;12.074;2022-12-18T00:41:32;135.00;;;43.10;;
3627;SDS011;1830;49.000;12.074;2022-12-18T00:44:17;117.00;;;42.47;;
3627;SDS011;1830;49.000;12.074;2022-12-18T00:46:44;123.90;;;44.60;;
3627;SDS011;1830;49.000;12.074;2022-12-18T00:49:12;140.30;;;45.83;;
3627;SDS011;1830;49.000;12.074;2022-12-18T00:51:40;107.20;;;40.07;;
3627;SDS011;1830;49.000;12.074;2022-12-18T00:54:07;138.23;;;45.23;;
3627;SDS011;1830;49.000;12.074;2022-12-18T00:56:36;113.17;;;42.77;;
3627;SDS011;1830;49.000;12.074;2022-12-18T00:59:04;98.53;;;38.70;;
3627;SDS011;1830;49.000;12.074;2022-12-18T01:01:31;116.10;;;43.27;;
3627;SDS011;1830;49.000;12.074;2022-12-18T01:03:59;110.37;;;40.80;;
3627;SDS011;1830;49.000;12.074;2022-12-18T01:06:26;108.07;;;40.00;;
3627;SDS011;1830;49.000;12.074;2022-12-18T01:08:53;106.07;;;39.83;;
3627;SDS011;1830;49.000;12.074;2022-12-18T01:11:22;107.43;;;39.00;;
3627;SDS011;1830;49.000;12.074;2022-12-18T01:13:50;100.73;;;40.17;;
3627;SDS011;1830;49.000;12.074;2022-12-18T01:16:18;108.37;;;42.93;;
3627;SDS011;1830;49.000;12.074;2022-12-18T01:18:45;129.40;;;43.10;;
3627;SDS011;1830;49.000;12.074;2022-12-18T01:21:13;122.40;;;44.07;;
3627;SDS011;1830;49.000;12.074;2022-12-18T01:23:42;105.77;;;39.20;;
3627;SDS011;1830;49.000;12.074;2022-12-18T01:26:09;106.63;;;39.40;;
3627;SDS011;1830;49.000;12.074;2022-12-18T01:28:38;97.00;;;40.80;;
3627;SDS011;1830;49.000;12.074;2022-12-18T01:31:10;108.37;;;41.40;;
3627;SDS011;1830;49.000;12.074;2022-12-18T01:33:38;118.53;;;41.20;;
3627;SDS011;1830;49.000;12.074;2022-12-18T01:36:05;109.93;;;40.53;;
3627;SDS011;1830;49.000;12.074;2022-12-18T01:38:32;112.80;;;41.00;;
3627;SDS011;1830;49.000;12.074;2022-12-18T01:41:00;130.20;;;41.60;;
3627;SDS011;1830;49.000;12.074;2022-12-18T01:43:43;100.53;;;38.70;;
3627;SDS011;1830;49.000;12.074;2022-12-18T01:46:14;127.00;;;44.57;;
3627;SDS011;1830;49.000;12.074;2022-12-18T01:48:41;121.00;;;42.83;;
3627;SDS011;1830;49.000;12.074;2022-12-18T01:51:09;113.20;;;41.13;;
3627;SDS011;1830;49.000;12.074;2022-12-18T01:53:37;112.53;;;40.70;;
3627;SDS011;1830;49.000;12.074;2022-12-18T01:56:06;117.30;;;41.60;;
3627;SDS011;1830;49.000;12.074;2022-12-18T01:58:37;98.70;;;39.63;;
3627;SDS011;1830;49.000;12.074;2022-12-18T02:01:09;104.40;;;39.40;;
3627;SDS011;1830;49.000;12.074;2022-12-18T02:03:39;113.50;;;39.90;;
3627;SDS011;1830;49.000;12.074;2022-12-18T02:06:09;100.67;;;38.77;;
3627;SDS011;1830;49.000;12.074;2022-12-18T02:08:40;111.23;;;39.93;;
3627;SDS011;1830;49.000;12.074;2022-12-18T02:11:14;105.00;;;38.87;;
3627;SDS011;1830;49.000;12.074;2022-12-18T02:13:53;114.83;;;40.33;;
3627;SDS011;1830;49.000;12.074;2022-12-18T02:16:32;103.07;;;36.60;;
3627;SDS011;1830;49.000;12.074;2022-12-18T02:21:14;109.60;;;37.20;;
3627;SDS011;1830;49.000;12.074;2022-12-18T02:23:50;107.43;;;35.90;;
3627;SDS011;1830;49.000;12.074;2022-12-18T02:28:44;96.77;;;35.73;;
3627;SDS011;1830;49.000;12.074;2022-12-18T02:31:16;98.23;;;36.77;;
3627;SDS011;1830;49.000;12.074;2022-12-18T02:33:47;113.33;;;40.73;;
3627;SDS011;1830;49.000;12.074;2022-12-18T02:36:16;108.10;;;40.40;;
3627;SDS011;1830;49.000;12.074;2022-12-18T02:38:44;89.57;;;37.50;;
3627;SDS011;1830;49.000;12.074;2022-12-18T02:41:13;100.67;;;37.80;;
3627;SDS011;1830;49.000;12.074;2022-12-18T02:43:46;96.00;;;37.50;;
3627;SDS011;1830;49.000;12.074;2022-12-18T02:46:28;103.10;;;35.97;;
3627;SDS011;1830;49.000;12.074;2022-12-18T02:49:01;97.53;;;35.90;;
3627;SDS011;1830;49.000;12.074;2022-12-18T02:51:37;82.07;;;34.43;;
3627;SDS011;1830;49.000;12.074;2022-12-18T02:54:13;90.17;;;35.13;;
3627;SDS011;1830;49.000;12.074;2022-12-18T02:56:49;95.67;;;34.40;;
3627;SDS011;1830;49.000;12.074;2022-12-18T02:59:21;91.93;;;36.57;;
3627;SDS011;1830;49.000;12.074;2022-12-18T03:01:55;91.17;;;35.10;;
3627;SDS011;1830;49.000;12.074;2022-12-18T03:04:28;92.27;;;35.47;;
3627;SDS011;1830;49.000;12.074;2022-12-18T03:06:59;89.47;;;33.17;;
3627;SDS011;1830;49.000;12.074;2022-12-18T03:09:32;91.00;;;35.10;;
3627;SDS011;1830;49.000;12.074;2022-12-18T03:12:02;76.37;;;30.77;;
3627;SDS011;1830;49.000;12.074;2022-12-18T03:14:54;77.63;;;32.63;;
3627;SDS011;1830;49.000;12.074;2022-12-18T03:17:25;90.33;;;34.67;;
3627;SDS011;1830;49.000;12.074;2022-12-18T03:19:54;77.30;;;32.07;;
3627;SDS011;1830;49.000;12.074;2022-12-18T03:22:24;78.27;;;32.80;;
3627;SDS011;1830;49.000;12.074;2022-12-18T03:24:54;79.53;;;32.67;;
3627;SDS011;1830;49.000;12.074;2022-12-18T03:27:23;76.67;;;29.93;;
3627;SDS011;1830;49.000;12.074;2022-12-18T03:29:54;74.93;;;31.33;;
3627;SDS011;1830;49.000;12.074;2022-12-18T03:32:32;71.27;;;31.50;;
3627;SDS011;1830;49.000;12.074;2022-12-18T03:35:03;78.17;;;31.77;;
3627;SDS011;1830;49.000;12.074;2022-12-18T03:37:32;84.43;;;33.93;;
3627;SDS011;1830;49.000;12.074;2022-12-18T03:39:59;77.13;;;31.90;;
3627;SDS011;1830;49.000;12.074;2022-12-18T03:42:27;79.03;;;32.20;;
3627;SDS011;1830;49.000;12.074;2022-12-18T03:45:28;79.50;;;33.07;;
3627;SDS011;1830;49.000;12.074;2022-12-18T03:48:01;72.70;;;32.17;;
3627;SDS011;1830;49.000;12.074;2022-12-18T03:50:36;75.97;;;35.20;;
3627;SDS011;1830;49.000;12.074;2022-12-18T03:54:09;81.53;;;34.70;;
3627;SDS011;1830;49.000;12.074;2022-12-18T03:56:37;86.07;;;34.63;;
3627;SDS011;1830;49.000;12.074;2022-12-18T03:59:08;85.00;;;33.80;;
3627;SDS011;1830;49.000;12.074;2022-12-18T04:01:38;90.27;;;34.40;;
3627;SDS011;1830;49.000;12.074;2022-12-18T04:04:07;70.10;;;29.63;;
3627;SDS011;1830;49.000;12.074;2022-12-18T04:06:36;69.17;;;29.97;;
3627;SDS011;1830;49.000;12.074;2022-12-18T04:09:04;81.33;;;31.93;;
3627;SDS011;1830;49.000;12.074;2022-12-18T04:11:33;75.97;;;31.43;;
3627;SDS011;1830;49.000;12.074;2022-12-18T04:14:00;67.90;;;30.23;;
3627;SDS011;1830;49.000;12.074;2022-12-18T04:16:26;67.67;;;29.80;;
3627;SDS011;1830;49.000;12.074;2022-12-18T04:18:54;64.40;;;29.00;;
3627;SDS011;1830;49.000;12.074;2022-12-18T04:21:21;73.50;;;29.43;;
3627;SDS011;1830;49.000;12.074;2022-12-18T04:23:47;68.27;;;30.60;;
3627;SDS011;1830;49.000;12.074;2022-12-18T04:26:14;75.00;;;31.10;;
3627;SDS011;1830;49.000;12.074;2022-12-18T04:28:43;73.07;;;31.37;;
3627;SDS011;1830;49.000;12.074;2022-12-18T04:31:09;75.40;;;31.30;;
3627;SDS011;1830;49.000;12.074;2022-12-18T04:33:36;74.13;;;30.60;;
3627;SDS011;1830;49.000;12.074;2022-12-18T04:36:03;73.50;;;29.53;;
3627;SDS011;1830;49.000;12.074;2022-12-18T04:38:30;74.87;;;31.67;;
3627;SDS011;1830;49.000;12.074;2022-12-18T04:40:57;70.70;;;31.37;;
3627;SDS011;1830;49.000;12.074;2022-12-18T04:43:24;70.80;;;30.73;;
3627;SDS011;1830;49.000;12.074;2022-12-18T04:45:52;75.53;;;31.83;;
3627;SDS011;1830;49.000;12.074;2022-12-18T04:48:20;75.07;;;32.03;;
3627;SDS011;1830;49.000;12.074;2022-12-18T04:50:47;76.87;;;31.33;;
3627;SDS011;1830;49.000;12.074;2022-12-18T04:53:14;77.40;;;31.47;;
3627;SDS011;1830;49.000;12.074;2022-12-18T04:55:41;86.93;;;33.57;;
3627;SDS011;1830;49.000;12.074;2022-12-18T04:58:07;71.37;;;29.50;;
3627;SDS011;1830;49.000;12.074;2022-12-18T05:00:34;72.83;;;30.20;;
3627;SDS011;1830;49.000;12.074;2022-12-18T05:03:02;69.07;;;29.80;;
3627;SDS011;1830;49.000;12.074;2022-12-18T05:05:29;69.03;;;29.70;;
3627;SDS011;1830;49.000;12.074;2022-12-18T05:07:56;68.53;;;28.30;;
3627;SDS011;1830;49.000;12.074;2022-12-18T05:10:23;77.73;;;30.53;;
3627;SDS011;1830;49.000;12.074;2022-12-18T05:12:50;64.93;;;27.77;;
3627;SDS011;1830;49.000;12.074;2022-12-18T05:15:26;72.47;;;27.87;;
3627;SDS011;1830;49.000;12.074;2022-12-18T05:17:54;59.33;;;25.57;;
3627;SDS011;1830;49.000;12.074;2022-12-18T05:20:23;67.13;;;27.03;;
3627;SDS011;1830;49.000;12.074;2022-12-18T05:22:50;61.87;;;26.30;;
3627;SDS011;1830;49.000;12.074;2022-12-18T05:25:18;61.40;;;28.20;;
3627;SDS011;1830;49.000;12.074;2022-12-18T05:27:47;68.97;;;28.93;;
3627;SDS011;1830;49.000;12.074;2022-12-18T05:33:06;70.10;;;29.43;;
3627;SDS011;1830;49.000;12.074;2022-12-18T05:35:33;75.77;;;30.13;;
3627;SDS011;1830;49.000;12.074;2022-12-18T05:38:01;71.70;;;30.30;;
3627;SDS011;1830;49.000;12.074;2022-12-18T05:40:28;68.37;;;27.50;;
3627;SDS011;1830;49.000;12.074;2022-12-18T05:42:54;70.60;;;30.23;;
3627;SDS011;1830;49.000;12.074;2022-12-18T05:45:21;82.03;;;31.37;;
3627;SDS011;1830;49.000;12.074;2022-12-18T05:47:48;79.03;;;30.77;;
3627;SDS011;1830;49.000;12.074;2022-12-18T05:50:16;67.10;;;27.57;;
3627;SDS011;1830;49.000;12.074;2022-12-18T05:52:43;84.57;;;31.43;;
3627;SDS011;1830;49.000;12.074;2022-12-18T05:55:10;79.33;;;31.30;;
3627;SDS011;1830;49.000;12.074;2022-12-18T05:57:37;67.00;;;29.03;;
3627;SDS011;1830;49.000;12.074;2022-12-18T06:00:04;84.03;;;33.87;;
3627;SDS011;1830;49.000;12.074;2022-12-18T06:02:31;78.57;;;31.40;;
3627;SDS011;1830;49.000;12.074;2022-12-18T06:04:58;74.40;;;29.23;;
3627;SDS011;1830;49.000;12.074;2022-12-18T06:07:26;81.57;;;33.33;;
3627;SDS011;1830;49.000;12.074;2022-12-18T06:09:53;71.43;;;31.83;;
3627;SDS011;1830;49.000;12.074;2022-12-18T06:12:20;81.47;;;29.70;;
3627;SDS011;1830;49.000;12.074;2022-12-18T06:14:47;81.50;;;32.60;;
3627;SDS011;1830;49.000;12.074;2022-12-18T06:17:13;75.30;;;28.80;;
3627;SDS011;1830;49.000;12.074;2022-12-18T06:19:40;69.63;;;27.90;;
3627;SDS011;1830;49.000;12.074;2022-12-18T06:22:07;77.47;;;32.40;;
3627;SDS011;1830;49.000;12.074;2022-12-18T06:24:35;84.90;;;31.37;;
3627;SDS011;1830;49.000;12.074;2022-12-18T06:27:02;80.83;;;29.00;;
3627;SDS011;1830;49.000;12.074;2022-12-18T06:29:29;76.73;;;28.20;;
3627;SDS011;1830;49.000;12.074;2022-12-18T06:31:56;73.77;;;28.57;;
3627;SDS011;1830;49.000;12.074;2022-12-18T06:34:22;83.37;;;31.93;;
3627;SDS011;1830;49.000;12.074;2022-12-18T06:36:49;86.30;;;31.70;;
3627;SDS011;1830;49.000;12.074;2022-12-18T06:39:16;77.80;;;31.33;;
3627;SDS011;1830;49.000;12.074;2022-12-18T06:41:44;86.23;;;31.60;;
3627;SDS011;1830;49.000;12.074;2022-12-18T06:44:11;87.43;;;33.70;;
3627;SDS011;1830;49.000;12.074;2022-12-18T06:46:38;86.03;;;32.80;;
3627;SDS011;1830;49.000;12.074;2022-12-18T06:49:05;77.80;;;30.07;;
3627;SDS011;1830;49.000;12.074;2022-12-18T06:51:31;94.37;;;31.60;;
3627;SDS011;1830;49.000;12.074;2022-12-18T06:53:59;98.90;;;32.47;;
3627;SDS011;1830;49.000;12.074;2022-12-18T06:56:26;89.33;;;31.60;;
3627;SDS011;1830;49.000;12.074;2022-12-18T06:58:54;79.13;;;31.80;;
3627;SDS011;1830;49.000;12.074;2022-12-18T07:01:21;85.63;;;32.53;;
3627;SDS011;1830;49.000;12.074;2022-12-18T07:03:51;83.73;;;30.90;;
3627;SDS011;1830;49.000;12.074;2022-12-18T07:06:19;86.40;;;33.07;;
3627;SDS011;1830;49.000;12.074;2022-12-18T07:08:48;101.67;;;35.30;;
3627;SDS011;1830;49.000;12.074;2022-12-18T07:11:16;84.40;;;32.70;;
3627;SDS011;1830;49.000;12.074;2022-12-18T07:13:43;101.40;;;31.80;;
3627;SDS011;1830;49.000;12.074;2022-12-18T07:16:12;87.20;;;32.83;;
3627;SDS011;1830;49.000;12.074;2022-12-18T07:18:40;84.77;;;32.23;;
3627;SDS011;1830;49.000;12.074;2022-12-18T07:21:09;90.93;;;34.20;;
3627;SDS011;1830;49.000;12.074;2022-12-18T07:23:38;94.87;;;32.27;;
3627;SDS011;1830;49.000;12.074;2022-12-18T07:26:05;96.40;;;33.80;;
3627;SDS011;1830;49.000;12.074;2022-12-18T07:28:34;91.33;;;35.37;;
3627;SDS011;1830;49.000;12.074;2022-12-18T07:31:02;87.13;;;33.17;;
3627;SDS011;1830;49.000;12.074;2022-12-18T07:33:30;97.37;;;34.60;;
3627;SDS011;1830;49.000;12.074;2022-12-18T07:35:58;84.93;;;30.53;;
3627;SDS011;1830;49.000;12.074;2022-12-18T07:38:25;93.33;;;32.73;;
3627;SDS011;1830;49.000;12.074;2022-12-18T07:40:52;96.80;;;34.30;;
3627;SDS011;1830;49.000;12.074;2022-12-18T07:43:19;92.13;;;31.10;;
3627;SDS011;1830;49.000;12.074;2022-12-18T07:45:48;97.90;;;34.77;;
3627;SDS011;1830;49.000;12.074;2022-12-18T07:48:15;104.37;;;36.00;;
3627;SDS011;1830;49.000;12.074;2022-12-18T07:50:44;99.73;;;35.00;;
3627;SDS011;1830;49.000;12.074;2022-12-18T07:53:10;98.07;;;35.20;;
3627;SDS011;1830;49.000;12.074;2022-12-18T07:55:37;97.87;;;33.10;;
3627;SDS011;1830;49.000;12.074;2022-12-18T07:58:04;100.97;;;35.23;;
3627;SDS011;1830;49.000;12.074;2022-12-18T08:00:31;103.57;;;36.80;;
3627;SDS011;1830;49.000;12.074;2022-12-18T08:02:58;92.73;;;34.70;;
3627;SDS011;1830;49.000;12.074;2022-12-18T08:05:25;98.30;;;33.07;;
3627;SDS011;1830;49.000;12.074;2022-12-18T08:07:53;101.10;;;34.40;;
3627;SDS011;1830;49.000;12.074;2022-12-18T08:10:21;89.50;;;32.07;;
3627;SDS011;1830;49.000;12.074;2022-12-18T08:12:48;92.80;;;33.97;;
3627;SDS011;1830;49.000;12.074;2022-12-18T08:15:16;89.47;;;33.23;;
3627;SDS011;1830;49.000;12.074;2022-12-18T08:17:43;72.83;;;30.77;;
3627;SDS011;1830;49.000;12.074;2022-12-18T08:20:10;59.03;;;25.57;;
3627;SDS011;1830;49.000;12.074;2022-12-18T08:22:39;66.43;;;26.80;;
3627;SDS011;1830;49.000;12.074;2022-12-18T08:25:07;69.00;;;26.30;;
3627;SDS011;1830;49.000;12.074;2022-12-18T08:27:34;71.47;;;29.73;;
3627;SDS011;1830;49.000;12.074;2022-12-18T08:30:01;71.87;;;29.30;;
3627;SDS011;1830;49.000;12.074;2022-12-18T08:32:29;87.37;;;31.73;;
3627;SDS011;1830;49.000;12.074;2022-12-18T08:34:57;80.57;;;31.97;;
3627;SDS011;1830;49.000;12.074;2022-12-18T08:37:24;89.10;;;32.87;;
3627;SDS011;1830;49.000;12.074;2022-12-18T08:39:51;80.00;;;32.53;;
3627;SDS011;1830;49.000;12.074;2022-12-18T08:42:19;80.33;;;33.60;;
3627;SDS011;1830;49.000;12.074;2022-12-18T08:45:04;82.97;;;31.07;;
3627;SDS011;1830;49.000;12.074;2022-12-18T08:47:31;85.83;;;32.33;;
3627;SDS011;1830;49.000;12.074;2022-12-18T08:49:58;63.83;;;27.90;;
3627;SDS011;1830;49.000;12.074;2022-12-18T08:52:25;68.83;;;29.37;;
3627;SDS011;1830;49.000;12.074;2022-12-18T08:54:53;83.80;;;29.67;;
3627;SDS011;1830;49.000;12.074;2022-12-18T08:57:21;74.97;;;30.77;;
3627;SDS011;1830;49.000;12.074;2022-12-18T08:59:48;69.90;;;30.13;;
3627;SDS011;1830;49.000;12.074;2022-12-18T09:02:15;59.53;;;26.47;;
3627;SDS011;1830;49.000;12.074;2022-12-18T09:04:42;73.07;;;29.40;;
3627;SDS011;1830;49.000;12.074;2022-12-18T09:07:08;64.50;;;26.00;;
3627;SDS011;1830;49.000;12.074;2022-12-18T09:09:35;71.80;;;29.07;;
3627;SDS011;1830;49.000;12.074;2022-12-18T09:12:02;66.80;;;28.00;;
3627;SDS011;1830;49.000;12.074;2022-12-18T09:14:30;63.73;;;27.80;;
3627;SDS011;1830;49.000;12.074;2022-12-18T09:16:57;66.33;;;28.40;;
3627;SDS011;1830;49.000;12.074;2022-12-18T09:19:24;62.60;;;27.50;;
3627;SDS011;1830;49.000;12.074;2022-12-18T09:21:51;68.40;;;28.53;;
3627;SDS011;1830;49.000;12.074;2022-12-18T09:24:18;73.10;;;28.37;;
3627;SDS011;1830;49.000;12.074;2022-12-18T09:26:45;66.00;;;27.33;;
3627;SDS011;1830;49.000;12.074;2022-12-18T09:29:11;70.60;;;27.90;;
3627;SDS011;1830;49.000;12.074;2022-12-18T09:31:40;68.03;;;28.17;;
3627;SDS011;1830;49.000;12.074;2022-12-18T09:34:07;78.57;;;28.13;;
3627;SDS011;1830;49.000;12.074;2022-12-18T09:36:34;69.03;;;27.97;;
3627;SDS011;1830;49.000;12.074;2022-12-18T09:39:00;76.63;;;27.70;;
3627;SDS011;1830;49.000;12.074;2022-12-18T09:41:33;78.83;;;31.93;;
3627;SDS011;1830;49.000;12.074;2022-12-18T09:45:59;77.03;;;31.10;;
3627;SDS011;1830;49.000;12.074;2022-12-18T09:48:31;75.23;;;30.17;;
3627;SDS011;1830;49.000;12.074;2022-12-18T09:51:01;62.93;;;27.07;;
3627;SDS011;1830;49.000;12.074;2022-12-18T09:53:31;61.33;;;23.90;;
3627;SDS011;1830;49.000;12.074;2022-12-18T09:56:01;58.37;;;26.00;;
3627;SDS011;1830;49.000;12.074;2022-12-18T09:58:31;64.30;;;26.67;;
3627;SDS011;1830;49.000;12.074;2022-12-18T10:01:09;61.77;;;28.00;;
3627;SDS011;1830;49.000;12.074;2022-12-18T10:05:21;72.87;;;28.33;;
3627;SDS011;1830;49.000;12.074;2022-12-18T10:07:55;77.50;;;30.43;;
3627;SDS011;1830;49.000;12.074;2022-12-18T10:10:33;78.97;;;33.40;;
3627;SDS011;1830;49.000;12.074;2022-12-18T10:13:08;71.03;;;31.97;;
3627;SDS011;1830;49.000;12.074;2022-12-18T10:15:45;81.87;;;30.37;;
3627;SDS011;1830;49.000;12.074;2022-12-18T10:18:22;75.43;;;32.07;;
3627;SDS011;1830;49.000;12.074;2022-12-18T10:21:02;76.90;;;29.50;;
3627;SDS011;1830;49.000;12.074;2022-12-18T10:23:37;63.63;;;28.13;;
3627;SDS011;1830;49.000;12.074;2022-12-18T10:26:09;65.57;;;29.23;;
3627;SDS011;1830;49.000;12.074;2022-12-18T10:28:38;70.17;;;29.33;;
3627;SDS011;1830;49.000;12.074;2022-12-18T10:31:07;68.50;;;29.90;;
3627;SDS011;1830;49.000;12.074;2022-12-18T10:33:41;68.37;;;28.90;;
3627;SDS011;1830;49.000;12.074;2022-12-18T10:36:09;68.97;;;28.97;;
3627;SDS011;1830;49.000;12.074;2022-12-18T10:38:36;73.77;;;30.17;;
3627;SDS011;1830;49.000;12.074;2022-12-18T10:41:04;72.70;;;31.27;;
3627;SDS011;1830;49.000;12.074;2022-12-18T10:43:35;69.73;;;29.07;;
3627;SDS011;1830;49.000;12.074;2022-12-18T10:46:11;74.03;;;30.63;;
3627;SDS011;1830;49.000;12.074;2022-12-18T10:48:47;69.23;;;27.80;;
3627;SDS011;1830;49.000;12.074;2022-12-18T10:51:23;71.57;;;29.93;;
3627;SDS011;1830;49.000;12.074;2022-12-18T10:53:52;67.67;;;29.30;;
3627;SDS011;1830;49.000;12.074;2022-12-18T10:56:21;64.90;;;27.03;;
3627;SDS011;1830;49.000;12.074;2022-12-18T10:58:55;62.67;;;27.37;;
3627;SDS011;1830;49.000;12.074;2022-12-18T11:01:24;84.57;;;28.50;;
3627;SDS011;1830;49.000;12.074;2022-12-18T11:03:58;73.77;;;32.33;;
3627;SDS011;1830;49.000;12.074;2022-12-18T11:06:28;59.63;;;27.60;;
3627;SDS011;1830;49.000;12.074;2022-12-18T11:09:00;70.87;;;30.13;;
3627;SDS011;1830;49.000;12.074;2022-12-18T11:11:29;69.17;;;29.43;;
3627;SDS011;1830;49.000;12.074;2022-12-18T11:13:59;68.77;;;29.33;;
3627;SDS011;1830;49.000;12.074;2022-12-18T11:16:29;70.03;;;29.37;;
3627;SDS011;1830;49.000;12.074;2022-12-18T11:21:56;69.37;;;30.90;;
3627;SDS011;1830;49.000;12.074;2022-12-18T11:24:25;77.57;;;29.20;;
3627;SDS011;1830;49.000;12.074;2022-12-18T11:26:57;64.90;;;28.57;;
3627;SDS011;1830;49.000;12.074;2022-12-18T11:29:30;66.20;;;27.70;;
3627;SDS011;1830;49.000;12.074;2022-12-18T11:32:19;68.40;;;29.03;;
3627;SDS011;1830;49.000;12.074;2022-12-18T11:34:57;63.37;;;28.07;;
3627;SDS011;1830;49.000;12.074;2022-12-18T11:37:30;62.93;;;28.20;;
3627;SDS011;1830;49.000;12.074;2022-12-18T11:39:59;61.63;;;24.60;;
3627;SDS011;1830;49.000;12.074;2022-12-18T11:42:34;59.33;;;25.60;;
3627;SDS011;1830;49.000;12.074;2022-12-18T11:45:11;57.73;;;26.10;;
3627;SDS011;1830;49.000;12.074;2022-12-18T11:47:52;75.10;;;30.63;;
3627;SDS011;1830;49.000;12.074;2022-12-18T11:50:25;69.90;;;30.00;;
3627;SDS011;1830;49.000;12.074;2022-12-18T11:52:55;71.23;;;31.77;;
3627;SDS011;1830;49.000;12.074;2022-12-18T11:55:25;73.10;;;30.00;;
3627;SDS011;1830;49.000;12.074;2022-12-18T11:58:00;71.53;;;29.63;;
3627;SDS011;1830;49.000;12.074;2022-12-18T12:00:35;79.47;;;32.70;;
3627;SDS011;1830;49.000;12.074;2022-12-18T12:03:20;83.33;;;33.63;;
3627;SDS011;1830;49.000;12.074;2022-12-18T12:13:37;89.83;;;36.73;;
3627;SDS011;1830;49.000;12.074;2022-12-18T12:22:00;62.50;;;27.87;;
3627;SDS011;1830;49.000;12.074;2022-12-18T12:26:02;77.87;;;33.63;;
3627;SDS011;1830;49.000;12.074;2022-12-18T12:30:51;68.73;;;33.67;;
3627;SDS011;1830;49.000;12.074;2022-12-18T12:42:44;69.97;;;30.87;;
3627;SDS011;1830;49.000;12.074;2022-12-18T12:45:49;71.30;;;30.50;;
3627;SDS011;1830;49.000;12.074;2022-12-18T12:48:22;76.33;;;29.43;;
3627;SDS011;1830;49.000;12.074;2022-12-18T12:52:27;72.93;;;30.40;;
3627;SDS011;1830;49.000;12.074;2022-12-18T12:54:57;74.73;;;30.70;;
3627;SDS011;1830;49.000;12.074;2022-12-18T12:57:27;73.33;;;29.80;;
3627;SDS011;1830;49.000;12.074;2022-12-18T13:00:00;65.33;;;30.67;;
3627;SDS011;1830;49.000;12.074;2022-12-18T15:09:33;81.40;;;39.73;;
3627;SDS011;1830;49.000;12.074;2022-12-18T16:47:36;92.30;;;40.80;;
3627;SDS011;1830;49.000;12.074;2022-12-18T16:50:04;78.47;;;36.70;;
3627;SDS011;1830;49.000;12.074;2022-12-18T16:52:32;71.10;;;32.93;;
3627;SDS011;1830;49.000;12.074;2022-12-18T16:54:59;67.90;;;33.00;;
3627;SDS011;1830;49.000;12.074;2022-12-18T16:57:25;86.10;;;33.90;;
3627;SDS011;1830;49.000;12.074;2022-12-18T16:59:52;75.73;;;32.47;;
3627;SDS011;1830;49.000;12.074;2022-12-18T17:04:56;72.40;;;31.33;;
3627;SDS011;1830;49.000;12.074;2022-12-18T17:07:23;76.60;;;35.47;;
3627;SDS011;1830;49.000;12.074;2022-12-18T17:09:52;81.57;;;32.33;;
3627;SDS011;1830;49.000;12.074;2022-12-18T17:12:19;70.13;;;31.67;;
3627;SDS011;1830;49.000;12.074;2022-12-18T17:14:46;82.40;;;32.70;;
3627;SDS011;1830;49.000;12.074;2022-12-18T17:17:13;69.13;;;31.60;;
3627;SDS011;1830;49.000;12.074;2022-12-18T17:19:40;71.97;;;31.37;;
3627;SDS011;1830;49.000;12.074;2022-12-18T17:22:08;74.20;;;35.23;;
3627;SDS011;1830;49.000;12.074;2022-12-18T17:24:35;91.70;;;40.73;;
3627;SDS011;1830;49.000;12.074;2022-12-18T17:27:07;88.90;;;40.17;;
3627;SDS011;1830;49.000;12.074;2022-12-18T17:29:34;78.77;;;35.50;;
3627;SDS011;1830;49.000;12.074;2022-12-18T17:32:01;73.57;;;34.30;;
3627;SDS011;1830;49.000;12.074;2022-12-18T17:34:29;82.13;;;36.50;;
3627;SDS011;1830;49.000;12.074;2022-12-18T17:36:55;71.63;;;34.20;;
3627;SDS011;1830;49.000;12.074;2022-12-18T17:39:24;73.47;;;35.20;;
3627;SDS011;1830;49.000;12.074;2022-12-18T17:41:52;70.47;;;33.27;;
3627;SDS011;1830;49.000;12.074;2022-12-18T17:44:20;78.73;;;35.10;;
3627;SDS011;1830;49.000;12.074;2022-12-18T17:46:47;70.93;;;31.47;;
3627;SDS011;1830;49.000;12.074;2022-12-18T17:49:14;80.47;;;36.13;;
3627;SDS011;1830;49.000;12.074;2022-12-18T17:51:41;78.50;;;36.13;;
3627;SDS011;1830;49.000;12.074;2022-12-18T17:54:08;74.77;;;35.43;;
3627;SDS011;1830;49.000;12.074;2022-12-18T17:56:37;66.40;;;30.93;;
3627;SDS011;1830;49.000;12.074;2022-12-18T17:59:04;67.07;;;32.87;;
3627;SDS011;1830;49.000;12.074;2022-12-18T18:01:31;72.90;;;34.50;;
3627;SDS011;1830;49.000;12.074;2022-12-18T18:03:59;72.47;;;32.80;;
3627;SDS011;1830;49.000;12.074;2022-12-18T18:06:26;77.37;;;34.83;;
3627;SDS011;1830;49.000;12.074;2022-12-18T18:08:53;80.33;;;35.90;;
3627;SDS011;1830;49.000;12.074;2022-12-18T18:11:20;78.03;;;34.20;;
3627;SDS011;1830;49.000;12.074;2022-12-18T18:14:10;68.93;;;32.60;;
3627;SDS011;1830;49.000;12.074;2022-12-18T18:16:38;66.63;;;31.80;;
3627;SDS011;1830;49.000;12.074;2022-12-18T18:19:07;67.80;;;32.17;;
3627;SDS011;1830;49.000;12.074;2022-12-18T18:23:22;73.77;;;36.53;;
3627;SDS011;1830;49.000;12.074;2022-12-18T18:25:49;76.13;;;34.57;;
3627;SDS011;1830;49.000;12.074;2022-12-18T18:28:15;73.33;;;32.60;;
3627;SDS011;1830;49.000;12.074;2022-12-18T18:30:42;66.80;;;32.67;;
3627;SDS011;1830;49.000;12.074;2022-12-18T18:33:09;75.50;;;35.13;;
3627;SDS011;1830;49.000;12.074;2022-12-18T18:35:40;72.37;;;34.10;;
3627;SDS011;1830;49.000;12.074;2022-12-18T18:38:07;68.93;;;32.90;;
3627;SDS011;1830;49.000;12.074;2022-12-18T18:40:35;79.67;;;36.47;;
3627;SDS011;1830;49.000;12.074;2022-12-18T18:43:02;69.00;;;33.80;;
3627;SDS011;1830;49.000;12.074;2022-12-18T18:47:09;77.03;;;35.17;;
3627;SDS011;1830;49.000;12.074;2022-12-18T18:49:35;77.87;;;35.37;;
3627;SDS011;1830;49.000;12.074;2022-12-18T18:52:02;77.50;;;35.30;;
3627;SDS011;1830;49.000;12.074;2022-12-18T18:54:31;71.83;;;34.37;;
3627;SDS011;1830;49.000;12.074;2022-12-18T18:56:58;72.60;;;33.20;;
3627;SDS011;1830;49.000;12.074;2022-12-18T18:59:25;75.40;;;33.03;;
3627;SDS011;1830;49.000;12.074;2022-12-18T19:01:52;74.77;;;33.87;;
3627;SDS011;1830;49.000;12.074;2022-12-18T19:04:26;89.23;;;35.97;;
3627;SDS011;1830;49.000;12.074;2022-12-18T19:06:53;77.00;;;36.60;;
3627;SDS011;1830;49.000;12.074;2022-12-18T19:09:20;73.97;;;35.47;;
3627;SDS011;1830;49.000;12.074;2022-12-18T19:11:47;73.53;;;35.10;;
3627;SDS011;1830;49.000;12.074;2022-12-18T19:14:31;82.67;;;36.10;;
3627;SDS011;1830;49.000;12.074;2022-12-18T19:23:53;85.20;;;39.30;;
3627;SDS011;1830;49.000;12.074;2022-12-18T19:26:20;72.80;;;36.10;;